createdAt,value
2019-04-21T00:01:02.843Z,101211.75
2019-04-21T00:06:19.814Z,101210.95
2019-04-21T00:11:26.381Z,101216.27
2019-04-21T00:16:07.127Z,101213.69
2019-04-21T00:21:15.198Z,101204.42
2019-04-21T00:26:24.056Z,101198.89
2019-04-21T00:31:24.909Z,101195.33
2019-04-21T00:36:19.939Z,101189.58
2019-04-21T00:41:36.719Z,101180.91
2019-04-21T00:46:33.687Z,101186.63
2019-04-21T00:51:49.752Z,101186.44
2019-04-21T00:56:49.666Z,101190.78
2019-04-21T01:01:43.693Z,101187.41
2019-04-21T01:06:47.960Z,101190.76
2019-04-21T01:11:51.905Z,101184.40
2019-04-21T01:16:57.960Z,101192.45
2019-04-21T01:21:34.369Z,101177.88
2019-04-21T01:26:47.079Z,101176.41
2019-04-21T01:32:06.825Z,101171.31
2019-04-21T01:37:02.637Z,101161.83
2019-04-21T01:42:03.258Z,101164.95
2019-04-21T01:47:03.283Z,101158.95
2019-04-21T01:57:17.705Z,101150.60
2019-04-21T02:02:21.088Z,101143.13
2019-04-21T02:07:21.853Z,101138.02
2019-04-21T02:12:26.481Z,101132.38
2019-04-21T02:17:31.072Z,101122.97
2019-04-21T02:22:35.259Z,101123.12
2019-04-21T02:27:36.233Z,101130.95
2019-04-21T02:32:48.469Z,101120.58
2019-04-21T02:47:57.158Z,101097.73
2019-04-21T02:52:54.032Z,101096.66
2019-04-21T03:03:09.433Z,101093.36
2019-04-21T03:08:05.635Z,101075.98
2019-04-21T03:13:17.465Z,101069.50
2019-04-21T03:23:19.180Z,101060.95
2019-04-21T03:28:14.262Z,101053.74
2019-04-21T03:38:20.778Z,101051.96
2019-04-21T03:48:27.149Z,101043.42
2019-04-21T03:53:31.932Z,101046.05
2019-04-21T03:58:52.606Z,101045.77
2019-04-21T04:18:53.132Z,101045.12
2019-04-21T04:33:58.121Z,101046.83
2019-04-21T04:39:26.272Z,101053.54
2019-04-21T04:44:30.300Z,101053.70
2019-04-21T04:49:29.760Z,101053.91
2019-04-21T04:54:32.471Z,101055.69
2019-04-21T04:59:32.433Z,101048.27
2019-04-21T05:04:23.762Z,101051.41
2019-04-21T05:09:37.615Z,101051.98
2019-04-21T05:14:33.755Z,101057.65
2019-04-21T05:24:26.412Z,101053.97
2019-04-21T05:29:20.761Z,101048.66
2019-04-21T05:34:31.511Z,101045.95
2019-04-21T05:39:37.604Z,101045.56
2019-04-21T05:45:00.132Z,101047.68
2019-04-21T05:49:55.292Z,101043.73
2019-04-21T05:55:00.871Z,101048.76
2019-04-21T06:00:00.536Z,101046.34
2019-04-21T06:10:16.921Z,101053.05
2019-04-21T06:15:14.143Z,101053.26
2019-04-21T06:20:12.581Z,101055.33
2019-04-21T06:30:19.633Z,101053.83
2019-04-21T06:35:57.047Z,101050.60
2019-04-21T06:40:46.253Z,101049.90
2019-04-21T06:45:50.674Z,101046.17
2019-04-21T06:50:52.505Z,101047.86
2019-04-21T06:55:43.541Z,101041.64
2019-04-21T07:00:50.934Z,101040.56
2019-04-21T07:05:59.761Z,101043.59
2019-04-21T07:10:56.481Z,101040.93
2019-04-21T07:16:08.519Z,101045.91
2019-04-21T07:21:02.746Z,101041.38
2019-04-21T07:26:04.395Z,101035.55
2019-04-21T07:31:14.132Z,101030.84
2019-04-21T07:36:11.406Z,101024.24
2019-04-21T07:41:02.252Z,101022.33
2019-04-21T07:46:06.418Z,101021.20
2019-04-21T07:51:17.268Z,101020.16
2019-04-21T07:56:07.510Z,101016.16
2019-04-21T08:01:28.967Z,101014.81
2019-04-21T08:06:28.370Z,101022.88
2019-04-21T08:11:19.469Z,101024.57
2019-04-21T08:16:30.684Z,101020.95
2019-04-21T08:21:37.009Z,101037.32
2019-04-21T08:26:38.345Z,101029.67
2019-04-21T08:31:48.612Z,101024.19
2019-04-21T08:36:44.740Z,101011.41
2019-04-21T08:41:45.250Z,101006.25
2019-04-21T08:46:46.064Z,101010.11
2019-04-21T08:51:50.711Z,100995.85
2019-04-21T08:56:46.670Z,100999.09
2019-04-21T09:01:55.573Z,100990.84
2019-04-21T09:12:01.625Z,100986.50
2019-04-21T09:16:56.541Z,100977.80
2019-04-21T09:22:00.514Z,100962.31
2019-04-21T09:27:06.414Z,100966.89
2019-04-21T09:31:50.302Z,100960.11
2019-04-21T09:36:58.839Z,100962.16
2019-04-21T09:41:57.706Z,100962.64
2019-04-21T09:47:01.252Z,100952.45
2019-04-21T09:51:59.947Z,100941.06
2019-04-21T09:57:06.102Z,100931.06
2019-04-21T10:02:13.328Z,100921.20
2019-04-21T10:07:06.885Z,100905.02
2019-04-21T10:12:09.782Z,100901.36
2019-04-21T10:17:23.959Z,100890.64
2019-04-21T10:22:26.707Z,100870.28
2019-04-21T10:27:29.154Z,100853.92
2019-04-21T10:32:30.431Z,100838.76
2019-04-21T10:37:45.495Z,100838.64
2019-04-21T10:42:35.530Z,100835.24
2019-04-21T10:47:38.864Z,100825.45
2019-04-21T10:52:58.767Z,100821.43
2019-04-21T10:58:10.838Z,100811.78
2019-04-21T11:03:24.855Z,100796.43
2019-04-21T11:08:33.751Z,100791.66
2019-04-21T11:13:30.534Z,100787.58
2019-04-21T11:18:31.897Z,100773.08
2019-04-21T11:23:35.383Z,100764.53
2019-04-21T11:28:36.887Z,100764.39
2019-04-21T11:33:39.612Z,100757.92
2019-04-21T11:38:59.775Z,100738.27
2019-04-21T11:43:46.850Z,100737.92
2019-04-21T11:48:50.391Z,100729.51
2019-04-21T11:53:52.842Z,100729.31
2019-04-21T11:58:54.294Z,100713.34
2019-04-21T12:03:57.977Z,100711.66
2019-04-21T12:09:01.627Z,100704.20
2019-04-21T12:14:01.812Z,100709.80
2019-04-21T12:19:05.158Z,100710.42
2019-04-21T12:24:07.099Z,100694.57
2019-04-21T12:29:10.065Z,100701.08
2019-04-21T12:34:12.053Z,100682.78
2019-04-21T12:39:14.919Z,100674.09
2019-04-21T12:44:16.645Z,100670.17
2019-04-21T12:49:20.095Z,100655.17
2019-04-21T12:54:23.798Z,100656.41
2019-04-21T12:59:25.134Z,100639.88
2019-04-21T13:04:27.835Z,100626.88
2019-04-21T13:09:31.804Z,100621.73
2019-04-21T13:14:33.749Z,100612.28
2019-04-21T13:19:35.706Z,100600.23
2019-04-21T13:24:37.946Z,100589.59
2019-04-21T13:29:39.955Z,100581.58
2019-04-21T13:34:42.428Z,100580.23
2019-04-21T13:40:07.488Z,100578.13
2019-04-21T13:44:48.706Z,100565.78
2019-04-21T13:49:49.824Z,100562.13
2019-04-21T13:54:53.709Z,100550.27
2019-04-21T13:59:55.104Z,100540.39
2019-04-21T14:04:57.224Z,100537.51
2019-04-21T14:10:04.777Z,100521.70
2019-04-21T14:15:02.359Z,100525.76
2019-04-21T14:20:04.653Z,100522.19
2019-04-21T14:25:07.946Z,100512.41
2019-04-21T14:30:10.431Z,100503.29
2019-04-21T14:35:12.535Z,100502.29
2019-04-21T14:40:20.497Z,100493.70
2019-04-21T14:45:17.016Z,100494.48
2019-04-21T14:50:37.705Z,100484.00
2019-04-21T14:55:41.526Z,100474.61
2019-04-21T15:00:52.936Z,100469.36
2019-04-21T15:05:54.023Z,100481.02
2019-04-21T15:10:56.884Z,100469.14
2019-04-21T15:15:58.937Z,100469.61
2019-04-21T15:21:01.539Z,100457.98
2019-04-21T15:26:04.218Z,100460.56
2019-04-21T15:31:06.434Z,100453.39
2019-04-21T15:36:09.104Z,100445.56
2019-04-21T15:41:12.658Z,100449.70
2019-04-21T15:46:15.056Z,100434.20
2019-04-21T15:51:17.792Z,100437.02
2019-04-21T15:56:18.809Z,100430.37
2019-04-21T16:01:22.771Z,100431.55
2019-04-21T16:06:23.795Z,100416.10
2019-04-21T16:11:26.276Z,100413.91
2019-04-21T16:16:30.897Z,100414.52
2019-04-21T16:21:31.755Z,100410.80
2019-04-21T16:26:34.990Z,100398.11
2019-04-21T16:31:36.440Z,100400.44
2019-04-21T16:36:38.739Z,100389.35
2019-04-21T16:41:42.471Z,100387.13
2019-04-21T16:46:43.681Z,100383.37
2019-04-21T16:51:46.430Z,100384.48
2019-04-21T16:57:01.855Z,100375.86
2019-04-21T17:02:04.733Z,100368.87
2019-04-21T17:07:07.197Z,100363.67
2019-04-21T17:12:11.924Z,100362.66
2019-04-21T17:17:32.459Z,100356.27
2019-04-21T17:22:13.626Z,100356.61
2019-04-21T17:27:15.621Z,100356.29
2019-04-21T17:32:18.420Z,100353.94
2019-04-21T17:37:23.507Z,100350.94
2019-04-21T17:42:29.776Z,100347.66
2019-04-21T17:47:34.191Z,100345.17
2019-04-21T17:52:40.231Z,100344.41
2019-04-21T17:57:54.590Z,100350.03
2019-04-21T18:02:55.000Z,100347.23
2019-04-21T18:07:56.002Z,100351.52
2019-04-21T18:12:53.317Z,100348.17
2019-04-21T18:17:43.159Z,100346.95
2019-04-21T18:23:07.467Z,100349.54
2019-04-21T18:28:06.523Z,100353.27
2019-04-21T18:33:14.252Z,100349.56
2019-04-21T18:38:21.993Z,100351.83
2019-04-21T18:43:51.142Z,100355.01
2019-04-21T18:48:31.581Z,100351.97
2019-04-21T18:53:52.170Z,100355.47
2019-04-21T18:58:40.303Z,100360.42
2019-04-21T19:03:47.125Z,100351.73
2019-04-21T19:09:07.985Z,100351.60
2019-04-21T19:19:35.360Z,100357.27
2019-04-21T19:24:29.231Z,100363.27
2019-04-21T19:29:23.959Z,100353.30
2019-04-21T19:34:12.887Z,100356.81
2019-04-21T19:39:12.594Z,100354.53
2019-04-21T19:44:30.679Z,100350.72
2019-04-21T19:49:36.468Z,100350.86
2019-04-21T19:54:23.013Z,100343.58
2019-04-21T19:59:22.075Z,100338.37
2019-04-21T20:04:18.281Z,100337.56
2019-04-21T20:09:37.196Z,100335.64
2019-04-21T20:14:59.309Z,100326.85
2019-04-21T20:19:26.679Z,100330.95
2019-04-21T20:24:31.677Z,100325.56
2019-04-21T20:29:48.828Z,100320.28
2019-04-21T20:34:56.237Z,100319.89
2019-04-21T20:39:46.134Z,100321.39
2019-04-21T20:45:04.532Z,100310.88
2019-04-21T20:49:52.722Z,100321.40
2019-04-21T20:54:59.041Z,100311.70
2019-04-21T21:00:05.670Z,100311.97
2019-04-21T21:04:57.175Z,100307.65
2019-04-21T21:10:10.648Z,100301.45
2019-04-21T21:15:00.088Z,100298.50
2019-04-21T21:20:17.990Z,100297.33
2019-04-21T21:25:21.132Z,100298.88
2019-04-21T21:30:14.583Z,100299.78
2019-04-21T21:35:18.888Z,100297.71
2019-04-21T21:40:38.277Z,100297.20
2019-04-21T21:45:28.548Z,100300.27
2019-04-21T21:50:38.699Z,100292.53
2019-04-21T21:55:32.054Z,100293.09
2019-04-21T22:00:32.251Z,100288.00
2019-04-21T22:05:46.521Z,100282.62
2019-04-21T22:10:36.971Z,100285.27
2019-04-21T22:15:39.615Z,100273.95
2019-04-21T22:20:57.483Z,100278.10
2019-04-21T22:25:44.342Z,100272.91
2019-04-21T22:30:49.729Z,100266.81
2019-04-21T22:35:54.207Z,100268.78
2019-04-21T22:41:09.244Z,100272.81
2019-04-21T22:45:53.692Z,100273.72
2019-04-21T22:50:56.238Z,100270.69
2019-04-21T22:56:04.365Z,100267.47
2019-04-21T23:01:03.774Z,100265.34
2019-04-21T23:06:12.201Z,100268.28
2019-04-21T23:11:10.274Z,100264.16
2019-04-21T23:16:09.761Z,100272.95
2019-04-21T23:21:27.068Z,100265.89
2019-04-21T23:26:34.845Z,100265.16
2019-04-21T23:31:34.521Z,100261.67
2019-04-21T23:36:23.225Z,100263.53
2019-04-21T23:41:21.598Z,100260.07
2019-04-21T23:46:28.178Z,100264.66
2019-04-21T23:51:34.474Z,100262.91
2019-04-21T23:56:34.058Z,100259.84
